Time;durP1;ratioP1;P1;durP2;ratioP2;P2;SDS_P1;SDS_P2;PMS_P1;PMS_P2;Temp;Humidity;BMP_temperature;BMP_pressure;BME280_temperature;BME280_humidity;BME280_pressure;Samples;Min_cycle;Max_cycle;Signal;HPM_P1;HPM_P2
2021/05/23 00:01:07;;;;;;;73.80;23.23;;;7.10;99.90;;;;;;4444494;28;655841;-65
2021/05/23 00:03:55;;;;;;;33.73;14.20;;;7.00;99.90;;;;;;4455025;28;655582;-66
2021/05/23 00:06:42;;;;;;;30.23;13.85;;;6.90;99.90;;;;;;4438358;28;655925;-66
2021/05/23 00:09:29;;;;;;;48.43;17.77;;;6.80;99.90;;;;;;4461068;28;655538;-65
2021/05/23 00:12:16;;;;;;;169.93;42.33;;;6.80;99.90;;;;;;4454201;28;655437;-66
2021/05/23 00:15:06;;;;;;;437.17;80.07;;;6.70;99.90;;;;;;4416750;28;656672;-65
2021/05/23 00:17:53;;;;;;;749.97;143.67;;;6.70;99.90;;;;;;4417290;28;656378;-65
2021/05/23 00:20:41;;;;;;;318.73;59.77;;;6.60;99.90;;;;;;4454749;28;658227;-65
2021/05/23 00:23:28;;;;;;;518.10;82.67;;;6.60;99.90;;;;;;4433036;28;656805;-67
2021/05/23 00:26:15;;;;;;;406.13;75.03;;;6.50;99.90;;;;;;4438428;28;656716;-66
2021/05/23 00:29:03;;;;;;;355.50;70.07;;;6.40;99.90;;;;;;4444317;28;656719;-67
2021/05/23 00:31:50;;;;;;;153.90;40.80;;;6.40;99.90;;;;;;4453381;28;658372;-65
2021/05/23 00:34:37;;;;;;;382.03;65.07;;;6.30;99.90;;;;;;4424426;28;656733;-67
2021/05/23 00:37:26;;;;;;;153.10;43.53;;;6.30;99.90;;;;;;4439074;28;656361;-66
2021/05/23 00:40:14;;;;;;;350.87;55.00;;;6.20;99.90;;;;;;4413340;28;657428;-66
2021/05/23 00:43:01;;;;;;;267.10;50.50;;;6.20;99.90;;;;;;4452683;28;657273;-66
2021/05/23 00:45:48;;;;;;;203.13;41.23;;;6.10;99.90;;;;;;4434088;28;656749;-65
2021/05/23 00:48:35;;;;;;;112.13;32.20;;;6.10;99.90;;;;;;4452526;28;657453;-66
2021/05/23 00:51:22;;;;;;;99.88;26.73;;;6.10;99.90;;;;;;4421072;28;656726;-67
2021/05/23 00:54:10;;;;;;;59.87;17.93;;;6.00;99.90;;;;;;4439995;28;655575;-66
2021/05/23 00:56:57;;;;;;;42.10;13.90;;;5.90;99.90;;;;;;4418082;28;656038;-67
2021/05/23 00:59:44;;;;;;;36.03;11.77;;;5.90;99.90;;;;;;4440427;28;655708;-66
2021/05/23 01:02:49;;;;;;;36.97;12.73;;;5.90;99.90;;;;;;4436929;28;655308;-66
2021/05/23 01:05:36;;;;;;;48.97;14.67;;;5.80;99.90;;;;;;4406105;28;656388;-66
2021/05/23 01:08:24;;;;;;;71.17;14.60;;;5.80;99.90;;;;;;4444052;28;655914;-66
2021/05/23 01:11:57;;;;;;;41.43;12.43;;;5.80;99.90;;;;;;4452571;28;655335;-66
2021/05/23 01:14:51;;;;;;;38.27;10.60;;;5.70;99.90;;;;;;4433565;28;656821;-66
2021/05/23 01:17:41;;;;;;;24.97;8.40;;;5.70;99.90;;;;;;4415239;28;657054;-66
2021/05/23 01:20:39;;;;;;;13.40;5.43;;;5.70;99.90;;;;;;4417085;28;656211;-66
2021/05/23 01:23:29;;;;;;;20.87;5.80;;;5.70;99.90;;;;;;4430352;28;655781;-66
2021/05/23 01:26:17;;;;;;;14.27;7.15;;;5.60;99.90;;;;;;4430508;28;655638;-66
2021/05/23 01:29:07;;;;;;;16.60;8.50;;;5.60;99.90;;;;;;4412951;28;656021;-66
2021/05/23 01:31:54;;;;;;;17.37;8.93;;;5.60;99.90;;;;;;4412971;28;657055;-66
2021/05/23 01:34:41;;;;;;;21.80;10.32;;;5.60;99.90;;;;;;4436204;28;656289;-66
2021/05/23 01:37:28;;;;;;;19.80;10.63;;;5.60;99.90;;;;;;4433335;28;656643;-66
2021/05/23 01:40:17;;;;;;;17.63;8.40;;;5.60;99.90;;;;;;4455188;28;657393;-65
2021/05/23 01:43:05;;;;;;;16.37;8.30;;;5.50;99.90;;;;;;4434554;28;655526;-65
2021/05/23 01:45:52;;;;;;;15.43;8.50;;;5.50;99.90;;;;;;4446383;28;655525;-67
2021/05/23 01:48:39;;;;;;;19.17;8.17;;;5.50;99.90;;;;;;4439721;28;656361;-65
2021/05/23 01:51:26;;;;;;;17.73;8.20;;;5.50;99.90;;;;;;4434593;28;655484;-66
2021/05/23 01:54:13;;;;;;;17.13;7.47;;;5.50;99.90;;;;;;4416893;28;655825;-66
2021/05/23 01:57:00;;;;;;;11.60;5.87;;;5.40;99.90;;;;;;4435583;28;656994;-66
2021/05/23 01:59:48;;;;;;;13.23;5.30;;;5.40;99.90;;;;;;4436504;28;656060;-67
2021/05/23 02:02:35;;;;;;;12.37;4.73;;;5.40;99.90;;;;;;4459507;28;656907;-66
2021/05/23 02:05:22;;;;;;;10.07;4.60;;;5.30;99.90;;;;;;4433122;28;655486;-67
2021/05/23 02:08:09;;;;;;;18.53;6.90;;;5.30;99.90;;;;;;4471738;28;655815;-66
2021/05/23 02:10:57;;;;;;;12.00;7.03;;;5.30;99.90;;;;;;4456398;28;655359;-66
2021/05/23 02:13:44;;;;;;;13.03;6.60;;;5.30;99.90;;;;;;4434184;28;656072;-66
2021/05/23 02:16:33;;;;;;;14.57;5.70;;;5.30;99.90;;;;;;4456696;28;655854;-66
2021/05/23 02:19:20;;;;;;;12.57;5.63;;;5.20;99.90;;;;;;4433282;28;656426;-66
2021/05/23 02:22:08;;;;;;;11.33;4.97;;;5.20;99.90;;;;;;4447285;28;655532;-66
2021/05/23 02:24:55;;;;;;;13.77;4.90;;;5.20;99.90;;;;;;4459652;28;656701;-66
2021/05/23 02:27:43;;;;;;;7.32;3.83;;;5.10;99.90;;;;;;4436893;28;655260;-66
2021/05/23 02:30:33;;;;;;;7.27;3.50;;;5.10;99.90;;;;;;4444062;28;655128;-66
2021/05/23 02:33:22;;;;;;;7.65;3.53;;;5.10;99.90;;;;;;4434425;28;655639;-66
2021/05/23 02:36:09;;;;;;;9.03;4.40;;;5.10;99.90;;;;;;4436361;28;655588;-66
2021/05/23 02:38:56;;;;;;;9.87;3.93;;;5.10;99.90;;;;;;4439833;28;654577;-65
2021/05/23 02:41:43;;;;;;;7.85;3.33;;;5.10;99.90;;;;;;4438724;28;654582;-64
2021/05/23 02:44:30;;;;;;;8.37;4.47;;;5.10;99.90;;;;;;4457373;28;655921;-65
2021/05/23 02:47:17;;;;;;;14.18;4.57;;;5.10;99.90;;;;;;4438433;28;654760;-66
2021/05/23 02:50:06;;;;;;;11.93;5.20;;;5.10;99.90;;;;;;4442933;28;655789;-65
2021/05/23 02:52:53;;;;;;;10.13;4.45;;;5.10;99.90;;;;;;4437427;28;656130;-65
2021/05/23 02:55:41;;;;;;;10.20;4.57;;;5.10;99.90;;;;;;4438580;28;656540;-65
2021/05/23 02:58:28;;;;;;;11.23;4.13;;;5.10;99.90;;;;;;4433019;28;655596;-65
2021/05/23 03:01:15;;;;;;;11.93;3.53;;;5.20;99.90;;;;;;4439644;28;655960;-65
2021/05/23 03:04:02;;;;;;;11.10;4.00;;;5.20;99.90;;;;;;4438165;28;655401;-66
2021/05/23 03:06:50;;;;;;;11.10;4.07;;;5.20;99.90;;;;;;4439595;28;656833;-65
2021/05/23 03:09:37;;;;;;;13.60;3.60;;;5.30;99.90;;;;;;4420610;28;655491;-66
2021/05/23 03:12:24;;;;;;;6.90;3.73;;;5.30;99.90;;;;;;4441442;28;655443;-65
2021/05/23 03:15:13;;;;;;;13.30;3.70;;;5.40;99.90;;;;;;4439274;28;654845;-65
2021/05/23 03:18:00;;;;;;;6.10;4.10;;;5.40;99.90;;;;;;4415624;28;656415;-65
2021/05/23 03:20:47;;;;;;;7.63;3.70;;;5.40;99.90;;;;;;4426457;28;654657;-66
2021/05/23 03:23:35;;;;;;;6.63;3.20;;;5.50;99.90;;;;;;4457422;28;654408;-65
2021/05/23 03:26:22;;;;;;;7.87;3.30;;;5.50;99.90;;;;;;4445679;28;655204;-66
2021/05/23 03:29:09;;;;;;;9.63;3.47;;;5.60;99.90;;;;;;4443081;28;654835;-65
2021/05/23 03:31:56;;;;;;;9.60;3.00;;;5.70;99.90;;;;;;4439439;28;654199;-65
2021/05/23 03:34:43;;;;;;;10.00;3.40;;;5.70;99.90;;;;;;4430937;28;654534;-65
2021/05/23 03:37:30;;;;;;;7.37;3.60;;;5.80;99.90;;;;;;4441504;28;655900;-65
2021/05/23 03:40:18;;;;;;;9.83;3.50;;;5.90;99.90;;;;;;4432476;28;654302;-66
2021/05/23 03:43:05;;;;;;;12.50;5.90;;;6.00;99.90;;;;;;4438929;28;655431;-65
2021/05/23 03:45:52;;;;;;;11.73;4.87;;;6.10;99.90;;;;;;4435044;28;655908;-65
2021/05/23 03:48:39;;;;;;;12.97;5.73;;;6.30;99.90;;;;;;4455357;28;656471;-65
2021/05/23 03:51:27;;;;;;;10.60;4.63;;;6.40;99.90;;;;;;4437215;28;655952;-65
2021/05/23 03:54:14;;;;;;;7.03;4.30;;;6.60;99.90;;;;;;4436206;28;656029;-65
2021/05/23 03:57:02;;;;;;;7.95;3.95;;;6.60;99.90;;;;;;4456210;28;655167;-66
2021/05/23 03:59:49;;;;;;;8.47;3.80;;;6.70;99.90;;;;;;4437252;28;655156;-65
2021/05/23 04:02:36;;;;;;;9.13;4.23;;;6.70;99.90;;;;;;4442489;28;654871;-65
2021/05/23 04:05:24;;;;;;;10.10;4.00;;;6.90;99.90;;;;;;4428358;28;654538;-66
2021/05/23 04:08:11;;;;;;;8.23;4.43;;;7.00;99.90;;;;;;4459410;28;656194;-65
2021/05/23 04:11:01;;;;;;;9.63;5.63;;;7.10;99.90;;;;;;4430667;28;654518;-65
2021/05/23 04:13:49;;;;;;;17.87;8.60;;;7.20;99.90;;;;;;4437144;28;654587;-65
2021/05/23 04:16:36;;;;;;;11.23;6.93;;;7.40;99.90;;;;;;4441293;28;655190;-65
2021/05/23 04:19:23;;;;;;;14.57;7.88;;;7.50;99.90;;;;;;4435569;28;655935;-65
2021/05/23 04:22:10;;;;;;;14.37;9.07;;;7.70;99.90;;;;;;4437216;28;656423;-65
2021/05/23 04:24:57;;;;;;;15.10;8.57;;;7.80;99.90;;;;;;4417164;28;656126;-66
2021/05/23 04:27:45;;;;;;;13.15;6.95;;;7.90;99.90;;;;;;4458492;28;655865;-65
2021/05/23 04:30:33;;;;;;;13.10;4.63;;;8.00;99.90;;;;;;4435501;28;655985;-66
2021/05/23 04:33:20;;;;;;;5.78;3.67;;;8.20;99.90;;;;;;4436228;28;656821;-65
2021/05/23 04:36:07;;;;;;;10.77;4.87;;;8.40;99.90;;;;;;4418984;28;654499;-66
2021/05/23 04:38:54;;;;;;;9.77;5.40;;;8.60;99.90;;;;;;4440927;28;655848;-65
2021/05/23 04:41:41;;;;;;;11.17;7.00;;;8.70;99.90;;;;;;4455364;28;654379;-65
2021/05/23 04:44:28;;;;;;;10.20;5.27;;;9.00;99.90;;;;;;4435352;28;655512;-66
2021/05/23 04:47:16;;;;;;;15.03;5.00;;;9.10;99.90;;;;;;4456589;28;656368;-65
2021/05/23 04:50:03;;;;;;;14.17;7.13;;;9.30;99.90;;;;;;4418134;28;655437;-65
2021/05/23 04:52:50;;;;;;;13.07;6.50;;;9.50;99.90;;;;;;4454182;28;656557;-65
2021/05/23 04:55:37;;;;;;;13.03;6.20;;;9.70;99.90;;;;;;4418274;28;655929;-66
2021/05/23 04:58:24;;;;;;;13.57;4.90;;;9.90;99.90;;;;;;4457980;28;655856;-65
2021/05/23 05:01:11;;;;;;;7.03;3.75;;;10.20;99.90;;;;;;4454264;28;656478;-65
2021/05/23 05:03:59;;;;;;;10.67;3.50;;;10.30;99.90;;;;;;4435047;28;655291;-66
2021/05/23 05:06:47;;;;;;;5.57;2.80;;;10.60;99.90;;;;;;4452968;28;656925;-65
2021/05/23 05:09:34;;;;;;;6.60;2.63;;;10.70;99.90;;;;;;4431509;28;656910;-65
2021/05/23 05:12:21;;;;;;;6.30;2.50;;;10.70;99.90;;;;;;4435927;28;656440;-65
2021/05/23 05:15:08;;;;;;;6.53;2.63;;;10.90;99.90;;;;;;4417465;28;656344;-65
2021/05/23 05:17:55;;;;;;;6.90;2.07;;;11.10;99.90;;;;;;4436510;28;656068;-65
2021/05/23 05:20:43;;;;;;;4.27;2.10;;;11.30;99.90;;;;;;4417248;28;655656;-66
2021/05/23 05:23:30;;;;;;;5.20;2.00;;;11.50;99.90;;;;;;4453431;28;656272;-65
2021/05/23 05:26:17;;;;;;;5.03;2.00;;;11.70;99.90;;;;;;4419277;28;655729;-65
2021/05/23 05:29:04;;;;;;;2.07;1.40;;;11.80;99.90;;;;;;4453692;28;655860;-65
2021/05/23 05:31:51;;;;;;;6.03;1.63;;;11.90;99.90;;;;;;4453199;28;655995;-65
2021/05/23 05:34:38;;;;;;;5.30;1.60;;;12.10;99.90;;;;;;4417842;28;655430;-65
2021/05/23 05:37:26;;;;;;;5.13;2.00;;;12.30;99.90;;;;;;4435921;28;656709;-65
2021/05/23 05:40:14;;;;;;;6.43;1.80;;;12.50;99.90;;;;;;4416438;28;655453;-65
2021/05/23 05:43:01;;;;;;;4.43;2.03;;;12.70;99.90;;;;;;4418621;28;656036;-64
2021/05/23 05:45:48;;;;;;;4.33;2.00;;;12.70;99.90;;;;;;4399512;28;655762;-65
2021/05/23 05:48:35;;;;;;;5.47;1.93;;;12.70;99.90;;;;;;4418550;28;656866;-65
2021/05/23 05:51:22;;;;;;;5.27;2.30;;;12.90;99.90;;;;;;4417073;28;656124;-65
2021/05/23 05:54:10;;;;;;;6.30;2.53;;;13.10;99.90;;;;;;4422313;28;655869;-65
2021/05/23 05:56:58;;;;;;;7.03;2.80;;;13.10;99.90;;;;;;4407975;28;656034;-66
2021/05/23 05:59:45;;;;;;;8.83;2.87;;;13.10;99.90;;;;;;4434941;28;656121;-65
2021/05/23 06:02:32;;;;;;;9.27;3.53;;;13.20;99.90;;;;;;4416574;28;655549;-66
2021/05/23 06:05:19;;;;;;;10.70;4.10;;;13.50;99.90;;;;;;4426609;28;657415;-65
2021/05/23 06:08:06;;;;;;;13.13;3.90;;;13.70;99.90;;;;;;4445568;28;656291;-65
2021/05/23 06:10:54;;;;;;;10.50;3.70;;;13.90;99.90;;;;;;4414699;28;656338;-65
2021/05/23 06:13:41;;;;;;;5.13;2.60;;;14.00;99.90;;;;;;4434090;28;656363;-65
2021/05/23 06:16:28;;;;;;;7.10;2.87;;;14.20;99.90;;;;;;4416688;28;655658;-65
2021/05/23 06:19:15;;;;;;;6.45;2.83;;;14.40;99.90;;;;;;4436237;28;656017;-65
2021/05/23 06:22:02;;;;;;;5.73;2.50;;;14.60;99.90;;;;;;4427021;28;655767;-66
2021/05/23 06:24:49;;;;;;;5.90;2.40;;;14.80;99.90;;;;;;4439252;28;655804;-64
2021/05/23 06:27:37;;;;;;;6.63;2.17;;;14.80;99.90;;;;;;4435160;28;656374;-65
2021/05/23 06:30:24;;;;;;;5.07;2.43;;;14.80;99.90;;;;;;4412922;28;657254;-65
2021/05/23 06:33:11;;;;;;;6.37;2.80;;;15.00;99.90;;;;;;4435083;28;656219;-65
2021/05/23 06:35:58;;;;;;;10.33;2.67;;;15.20;99.90;;;;;;4426136;28;655428;-64
2021/05/23 06:38:45;;;;;;;8.23;2.40;;;15.30;99.90;;;;;;4454342;28;656958;-65
2021/05/23 06:41:32;;;;;;;4.40;1.90;;;15.50;99.90;;;;;;4436848;28;655679;-65
2021/05/23 06:44:20;;;;;;;5.97;2.20;;;15.30;99.90;;;;;;4439786;28;657124;-65
2021/05/23 06:47:07;;;;;;;2.23;1.50;;;15.40;99.90;;;;;;4417033;28;655508;-65
2021/05/23 06:49:54;;;;;;;4.53;1.87;;;15.50;99.90;;;;;;4456127;28;656072;-65
2021/05/23 06:52:41;;;;;;;3.67;2.10;;;15.60;99.90;;;;;;4456153;28;656069;-65
2021/05/23 06:55:28;;;;;;;8.35;2.40;;;15.70;99.90;;;;;;4433858;27;655603;-65
2021/05/23 06:58:15;;;;;;;4.00;2.27;;;15.90;99.90;;;;;;4442637;28;656042;-65
2021/05/23 07:01:03;;;;;;;5.37;2.23;;;16.00;99.90;;;;;;4430983;28;655736;-66
2021/05/23 07:03:50;;;;;;;5.20;2.37;;;16.10;99.90;;;;;;4453706;28;655773;-65
2021/05/23 07:06:37;;;;;;;4.60;1.50;;;16.30;99.90;;;;;;4439866;28;656081;-66
2021/05/23 07:09:24;;;;;;;4.57;1.70;;;16.30;99.90;;;;;;4462536;28;655524;-65
2021/05/23 07:12:11;;;;;;;4.30;1.60;;;16.20;99.90;;;;;;4437934;28;656376;-65
2021/05/23 07:14:58;;;;;;;3.47;1.50;;;16.30;99.90;;;;;;4436841;28;655582;-65
2021/05/23 07:17:47;;;;;;;3.38;1.27;;;16.50;99.90;;;;;;4437648;28;656575;-65
2021/05/23 07:20:34;;;;;;;2.30;1.33;;;16.50;99.90;;;;;;4419507;28;656361;-65
2021/05/23 07:23:21;;;;;;;3.67;1.03;;;16.60;99.90;;;;;;4438173;28;656509;-65
2021/05/23 07:26:08;;;;;;;2.77;1.03;;;16.80;99.90;;;;;;4436436;28;655526;-65
2021/05/23 07:28:55;;;;;;;3.53;1.30;;;16.90;99.90;;;;;;4439510;28;656108;-65
2021/05/23 07:31:42;;;;;;;2.33;1.13;;;17.10;99.90;;;;;;4440696;28;655943;-66
2021/05/23 07:34:30;;;;;;;3.40;1.40;;;17.10;99.90;;;;;;4441760;28;655719;-65
2021/05/23 07:37:17;;;;;;;4.97;1.35;;;17.10;99.90;;;;;;4439927;28;655554;-65
2021/05/23 07:40:05;;;;;;;3.13;1.27;;;16.90;99.90;;;;;;4459155;28;655628;-64
2021/05/23 07:42:52;;;;;;;6.03;1.43;;;16.90;99.90;;;;;;4419682;28;655586;-66
2021/05/23 07:45:39;;;;;;;2.30;1.10;;;16.90;99.90;;;;;;4437976;28;655355;-65
2021/05/23 07:48:26;;;;;;;1.63;1.03;;;17.10;99.90;;;;;;4437506;28;655914;-65
2021/05/23 07:51:14;;;;;;;1.93;1.20;;;17.20;99.90;;;;;;4436179;28;655374;-65
2021/05/23 07:54:01;;;;;;;4.27;1.20;;;17.10;99.90;;;;;;4454857;28;656451;-65
2021/05/23 07:56:48;;;;;;;2.87;1.10;;;17.30;99.90;;;;;;4436138;28;656302;-65
2021/05/23 07:59:35;;;;;;;4.97;1.30;;;17.60;99.90;;;;;;4454562;28;656726;-65
2021/05/23 08:02:22;;;;;;;5.23;1.30;;;17.70;99.90;;;;;;4437698;28;655508;-66
2021/05/23 08:05:11;;;;;;;6.83;1.27;;;17.70;99.90;;;;;;4441928;28;655323;-65
2021/05/23 08:07:58;;;;;;;2.27;1.40;;;17.60;99.90;;;;;;4434202;28;656006;-66
2021/05/23 08:10:46;;;;;;;2.70;1.40;;;17.90;99.90;;;;;;4454827;28;656021;-65
2021/05/23 08:13:33;;;;;;;2.53;1.33;;;18.10;99.90;;;;;;4418806;28;655404;-66
2021/05/23 08:16:20;;;;;;;3.90;1.37;;;18.40;99.90;;;;;;4437505;28;656874;-65
2021/05/23 08:19:06;;;;;;;3.10;1.23;;;18.30;99.90;;;;;;4437103;28;655427;-65
2021/05/23 08:21:53;;;;;;;1.97;1.40;;;18.40;99.90;;;;;;4413969;28;655231;-65
2021/05/23 08:24:41;;;;;;;5.20;1.30;;;18.40;99.90;;;;;;4436976;28;657087;-65
2021/05/23 08:27:28;;;;;;;4.40;1.50;;;18.60;99.90;;;;;;4435359;28;655521;-65
2021/05/23 08:30:16;;;;;;;3.90;1.63;;;18.50;99.90;;;;;;4454252;28;656535;-65
2021/05/23 08:33:03;;;;;;;5.83;1.53;;;18.50;99.90;;;;;;4435579;28;655386;-64
2021/05/23 08:35:50;;;;;;;3.27;1.63;;;18.50;99.90;;;;;;4437183;28;656491;-65
2021/05/23 08:38:37;;;;;;;4.60;1.53;;;18.70;99.90;;;;;;4419079;28;655298;-66
2021/05/23 08:41:25;;;;;;;3.77;1.63;;;18.80;99.90;;;;;;4454369;28;655806;-65
2021/05/23 08:44:17;;;;;;;3.73;1.70;;;18.60;99.90;;;;;;4437873;28;655908;-66
2021/05/23 08:47:04;;;;;;;4.53;2.00;;;18.60;99.90;;;;;;4418957;28;656530;-65
2021/05/23 08:49:52;;;;;;;3.15;1.50;;;18.60;99.90;;;;;;4453983;28;655070;-65
2021/05/23 08:52:39;;;;;;;3.60;1.80;;;18.70;99.90;;;;;;4435792;27;656005;-66
2021/05/23 08:55:26;;;;;;;3.97;1.83;;;19.00;99.90;;;;;;4436526;28;656147;-65
2021/05/23 08:58:15;;;;;;;3.00;1.60;;;19.20;99.90;;;;;;4417990;28;655916;-66
2021/05/23 09:01:02;;;;;;;5.73;1.90;;;19.50;99.90;;;;;;4435150;28;655643;-66
2021/05/23 09:03:56;;;;;;;5.87;1.80;;;19.80;99.90;;;;;;4454122;28;655481;-65
2021/05/23 09:06:43;;;;;;;5.73;1.63;;;19.90;99.90;;;;;;4412079;28;656470;-65
2021/05/23 09:09:30;;;;;;;4.07;1.57;;;20.20;99.90;;;;;;4455840;28;657347;-65
2021/05/23 09:12:18;;;;;;;8.13;1.77;;;20.30;99.90;;;;;;4434440;28;655548;-66
2021/05/23 09:15:09;;;;;;;1.70;1.30;;;19.90;99.90;;;;;;4436715;28;657246;-65
2021/05/23 09:18:06;;;;;;;5.77;1.70;;;19.30;99.90;;;;;;4411505;28;655707;-66
2021/05/23 09:21:00;;;;;;;3.60;1.63;;;19.00;99.90;;;;;;4390371;28;656809;-65
2021/05/23 09:23:49;;;;;;;3.03;1.60;;;18.70;99.90;;;;;;4411582;28;655569;-66
2021/05/23 09:26:39;;;;;;;5.53;1.67;;;18.70;99.90;;;;;;4436023;28;656187;-65
2021/05/23 09:29:26;;;;;;;3.27;1.77;;;18.90;99.90;;;;;;4413044;28;656610;-65
2021/05/23 09:32:18;;;;;;;4.60;1.60;;;18.80;99.90;;;;;;4417284;28;656161;-66
2021/05/23 09:35:07;;;;;;;4.20;1.70;;;18.60;99.90;;;;;;4430288;28;656790;-65
2021/05/23 09:37:58;;;;;;;6.47;1.40;;;18.30;99.90;;;;;;4430545;28;657080;-65
2021/05/23 09:40:45;;;;;;;1.80;1.10;;;17.80;99.90;;;;;;4430938;28;656007;-65
2021/05/23 09:43:32;;;;;;;3.37;1.67;;;17.60;99.90;;;;;;4434959;28;656021;-66
2021/05/23 09:46:19;;;;;;;6.17;1.47;;;17.70;99.90;;;;;;4458066;28;656083;-65
2021/05/23 09:49:09;;;;;;;4.93;1.67;;;17.60;99.90;;;;;;4435723;28;656183;-65
2021/05/23 09:51:57;;;;;;;3.33;1.52;;;17.70;99.90;;;;;;4415570;28;655663;-65
2021/05/23 09:54:46;;;;;;;2.87;1.53;;;17.90;99.90;;;;;;4434742;28;656341;-65
2021/05/23 09:57:33;;;;;;;3.00;1.50;;;18.10;99.90;;;;;;4434334;28;655280;-65
2021/05/23 10:00:20;;;;;;;3.60;1.27;;;18.30;99.90;;;;;;4457493;28;656761;-65
2021/05/23 10:03:07;;;;;;;3.70;1.13;;;18.30;99.90;;;;;;4434505;28;655552;-66
2021/05/23 10:05:55;;;;;;;8.33;1.40;;;18.30;99.90;;;;;;4430549;28;655284;-65
2021/05/23 10:08:42;;;;;;;4.43;1.23;;;18.20;99.90;;;;;;4428373;28;655474;-66
2021/05/23 10:11:29;;;;;;;2.60;1.20;;;18.20;99.90;;;;;;4441336;28;656220;-65
2021/05/23 10:14:16;;;;;;;4.17;1.37;;;18.30;99.90;;;;;;4453264;28;655941;-65
2021/05/23 10:17:04;;;;;;;3.60;1.20;;;18.70;99.90;;;;;;4416760;28;655922;-65
2021/05/23 10:19:51;;;;;;;3.50;1.40;;;18.70;99.90;;;;;;4435468;28;656125;-65
2021/05/23 10:22:40;;;;;;;3.30;1.10;;;18.50;99.90;;;;;;4434842;28;655693;-65
2021/05/23 10:25:27;;;;;;;2.27;1.10;;;18.40;99.90;;;;;;4454525;28;655409;-66
2021/05/23 10:28:15;;;;;;;3.60;1.17;;;18.30;99.90;;;;;;4438770;28;657028;-65
2021/05/23 10:31:02;;;;;;;4.63;1.00;;;18.30;99.90;;;;;;4456237;28;655356;-65
2021/05/23 10:33:51;;;;;;;2.67;1.00;;;18.30;99.90;;;;;;4437944;28;656439;-65
2021/05/23 10:36:39;;;;;;;2.63;0.90;;;18.20;99.90;;;;;;4433361;28;656115;-65
2021/05/23 10:39:35;;;;;;;3.00;0.93;;;18.10;99.90;;;;;;4456365;28;655845;-65
2021/05/23 10:42:24;;;;;;;1.80;1.00;;;18.20;99.90;;;;;;4396826;28;655682;-66
2021/05/23 10:45:21;;;;;;;6.93;1.20;;;18.30;99.60;;;;;;4450404;28;656008;-65
2021/05/23 10:48:12;;;;;;;2.73;1.10;;;18.30;99.00;;;;;;4436876;28;655674;-66
2021/05/23 10:50:59;;;;;;;2.10;0.90;;;18.20;99.90;;;;;;4437153;28;655589;-65
2021/05/23 10:53:46;;;;;;;8.07;1.20;;;18.00;99.90;;;;;;4438466;28;655456;-65
2021/05/23 10:56:34;;;;;;;3.03;1.10;;;18.00;99.90;;;;;;4436933;28;655467;-66
2021/05/23 10:59:28;;;;;;;4.43;1.10;;;18.10;99.90;;;;;;4452570;28;656133;-65
2021/05/23 11:02:15;;;;;;;1.90;0.80;;;18.20;99.90;;;;;;4433039;28;656012;-65
2021/05/23 11:05:07;;;;;;;4.40;1.37;;;18.10;99.90;;;;;;4440923;28;655527;-66
2021/05/23 11:07:55;;;;;;;2.93;0.93;;;18.10;99.90;;;;;;4419447;28;655987;-65
2021/05/23 11:10:43;;;;;;;3.77;1.27;;;18.10;99.90;;;;;;4449636;28;655515;-66
2021/05/23 11:13:32;;;;;;;3.00;0.90;;;18.00;99.50;;;;;;4459622;28;657452;-66
2021/05/23 11:16:19;;;;;;;4.07;0.93;;;18.00;99.90;;;;;;4436514;28;655885;-65
2021/05/23 11:19:06;;;;;;;4.17;1.20;;;18.10;99.30;;;;;;4438287;28;655860;-65
2021/05/23 11:21:54;;;;;;;2.20;1.30;;;18.20;99.90;;;;;;4436715;28;655844;-65
2021/05/23 11:24:44;;;;;;;2.73;1.10;;;18.40;99.90;;;;;;4442197;28;655835;-65
2021/05/23 11:27:31;;;;;;;5.37;1.67;;;18.30;99.90;;;;;;4432562;28;655935;-65
2021/05/23 11:30:19;;;;;;;4.77;1.60;;;18.30;99.90;;;;;;4436666;28;655677;-66
2021/05/23 11:33:07;;;;;;;4.20;1.20;;;18.00;99.90;;;;;;4455330;28;655163;-65
2021/05/23 11:35:54;;;;;;;3.13;1.00;;;17.60;99.90;;;;;;4436170;28;655900;-65
2021/05/23 11:38:41;;;;;;;1.77;0.90;;;17.40;99.90;;;;;;4455319;28;655315;-65
2021/05/23 11:41:29;;;;;;;3.87;1.07;;;17.20;99.90;;;;;;4436653;28;655638;-65
2021/05/23 11:44:17;;;;;;;2.87;1.00;;;17.00;99.90;;;;;;4437094;28;656033;-64
2021/05/23 11:47:05;;;;;;;3.30;1.20;;;16.90;99.90;;;;;;4432344;28;656975;-65
2021/05/23 11:49:53;;;;;;;6.70;1.33;;;17.00;99.90;;;;;;4422104;28;655604;-66
2021/05/23 11:52:42;;;;;;;3.13;1.27;;;17.00;99.90;;;;;;4437773;28;656382;-65
2021/05/23 11:55:32;;;;;;;5.90;1.30;;;17.10;99.90;;;;;;4418373;28;656351;-65
2021/05/23 11:58:19;;;;;;;4.97;1.40;;;17.00;99.90;;;;;;4414306;28;656746;-65
2021/05/23 12:01:11;;;;;;;5.20;1.17;;;16.80;99.90;;;;;;4446568;28;655657;-65
2021/05/23 12:04:04;;;;;;;4.23;1.20;;;16.80;99.90;;;;;;4435312;28;655676;-66
2021/05/23 12:06:51;;;;;;;2.93;1.10;;;16.70;99.90;;;;;;4414626;28;656333;-65
2021/05/23 12:09:38;;;;;;;3.03;1.40;;;16.70;99.90;;;;;;4436993;28;655327;-64
2021/05/23 12:12:25;;;;;;;5.50;1.40;;;16.50;99.90;;;;;;4454311;28;655571;-65
2021/05/23 12:15:18;;;;;;;5.50;1.43;;;16.20;99.90;;;;;;4435407;28;655528;-67
2021/05/23 12:18:05;;;;;;;2.97;1.37;;;16.20;99.90;;;;;;4413867;28;656138;-66
2021/05/23 12:20:53;;;;;;;2.50;1.40;;;16.00;99.90;;;;;;4422815;28;655402;-68
2021/05/23 12:23:40;;;;;;;6.53;1.47;;;16.00;99.90;;;;;;4440973;28;656575;-66
2021/05/23 12:26:29;;;;;;;3.67;1.50;;;16.10;99.90;;;;;;4435425;28;656088;-68
2021/05/23 12:29:25;;;;;;;12.50;1.20;;;16.00;99.90;;;;;;4436993;28;655991;-65
2021/05/23 12:32:12;;;;;;;3.77;1.20;;;15.30;99.90;;;;;;4435148;28;657182;-67
2021/05/23 12:35:09;;;;;;;3.77;0.90;;;14.90;99.90;;;;;;4440472;28;655388;-65
2021/05/23 12:37:58;;;;;;;4.10;1.00;;;14.70;99.90;;;;;;4431060;28;655800;-66
2021/05/23 12:40:47;;;;;;;2.43;1.03;;;14.60;99.90;;;;;;4414347;28;656707;-65
2021/05/23 12:43:35;;;;;;;1.93;0.80;;;14.70;99.90;;;;;;4432519;28;656042;-66
2021/05/23 12:46:22;;;;;;;1.57;1.00;;;14.80;99.90;;;;;;4434090;28;655292;-68
2021/05/23 12:49:15;;;;;;;4.83;0.80;;;14.70;99.90;;;;;;4458208;28;655294;-65
2021/05/23 12:52:02;;;;;;;3.90;0.90;;;14.60;99.90;;;;;;4406764;28;655899;-66
2021/05/23 12:54:50;;;;;;;3.53;0.88;;;14.70;99.90;;;;;;4441331;28;655666;-64
2021/05/23 12:57:37;;;;;;;2.93;0.90;;;14.70;99.90;;;;;;4434927;28;655755;-66
2021/05/23 13:00:25;;;;;;;0.70;0.53;;;14.80;99.90;;;;;;4458266;28;656030;-65
2021/05/23 13:03:14;;;;;;;2.10;0.90;;;14.60;99.90;;;;;;4448244;28;655861;-65
2021/05/23 13:06:01;;;;;;;3.23;1.07;;;14.40;99.90;;;;;;4453863;28;655588;-65
2021/05/23 13:08:56;;;;;;;4.90;1.17;;;14.30;99.90;;;;;;4417475;28;655156;-65
2021/05/23 13:11:51;;;;;;;5.30;0.97;;;14.10;99.90;;;;;;4431602;28;655495;-65
2021/05/23 13:14:38;;;;;;;3.03;1.13;;;13.90;99.90;;;;;;4393783;28;655282;-65
2021/05/23 13:17:26;;;;;;;6.37;1.10;;;13.80;99.90;;;;;;4440865;28;656006;-65
2021/05/23 13:20:16;;;;;;;4.27;1.10;;;13.90;99.90;;;;;;4417391;28;655151;-66
2021/05/23 13:23:03;;;;;;;2.00;1.05;;;13.90;99.90;;;;;;4430854;28;655335;-65
2021/05/23 13:25:50;;;;;;;5.83;1.60;;;13.90;99.90;;;;;;4457353;28;656508;-64
2021/05/23 13:28:38;;;;;;;3.65;1.67;;;13.80;99.90;;;;;;4435126;28;655442;-66
2021/05/23 13:31:25;;;;;;;6.43;1.57;;;13.80;99.90;;;;;;4436415;28;656635;-65
2021/05/23 13:34:12;;;;;;;8.87;1.83;;;13.90;99.90;;;;;;4434521;28;655583;-67
2021/05/23 13:36:59;;;;;;;4.45;1.77;;;13.80;99.90;;;;;;4422804;28;655475;-64
2021/05/23 13:39:46;;;;;;;4.97;1.83;;;13.60;99.90;;;;;;4418578;28;655793;-64
2021/05/23 13:42:33;;;;;;;3.23;1.80;;;13.60;99.90;;;;;;4397570;28;655304;-65
2021/05/23 13:45:22;;;;;;;7.47;2.10;;;13.60;99.90;;;;;;4419048;28;656766;-64
2021/05/23 13:48:09;;;;;;;2.90;1.53;;;13.30;99.90;;;;;;4416957;28;655407;-65
2021/05/23 13:50:56;;;;;;;4.03;1.50;;;13.10;99.90;;;;;;4435755;28;655768;-64
2021/05/23 13:53:43;;;;;;;4.00;1.60;;;13.00;99.90;;;;;;4416707;28;655431;-65
2021/05/23 13:56:30;;;;;;;2.80;1.37;;;13.10;99.90;;;;;;4440424;28;656953;-65
2021/05/23 13:59:17;;;;;;;2.47;1.30;;;13.20;99.90;;;;;;4432525;28;656046;-66
2021/05/23 14:02:05;;;;;;;5.15;1.30;;;13.30;99.90;;;;;;4425987;28;655614;-65
2021/05/23 14:04:52;;;;;;;4.63;1.70;;;13.40;99.90;;;;;;4402959;28;655870;-66
2021/05/23 14:07:39;;;;;;;3.97;1.33;;;13.50;99.90;;;;;;4425416;28;656052;-64
2021/05/23 14:10:26;;;;;;;5.00;1.47;;;13.60;99.90;;;;;;4439091;28;655828;-65
2021/05/23 14:13:13;;;;;;;5.60;1.80;;;13.70;99.90;;;;;;4420581;28;655722;-65
2021/05/23 14:16:01;;;;;;;4.47;1.33;;;13.80;99.90;;;;;;4439120;28;655882;-65
2021/05/23 14:18:49;;;;;;;5.57;2.13;;;13.80;99.90;;;;;;4419241;28;655483;-65
2021/05/23 14:21:36;;;;;;;4.80;2.07;;;13.80;99.90;;;;;;4439165;28;656645;-65